Terminal Aerodrome Forecast
Issued by NWS Charleston, SC

Home | Current Version | Previous Version | Text Only | Print | Product List | Glossary On
Versions: 1 2 3 4 5 6 7 8 9 10 11 12 13 14 15 16 17 18
124
FTUS42 KCHS 230534
TAFCHS
TAF
KCHS 230534Z 2306/2406 06011KT P6SM FEW200
     FM231400 06013G20KT P6SM FEW200
     FM240100 07007KT P6SM FEW200=

USA.gov is the U.S. government's official web portal to all federal, state and local government web resources and services.